Flight Track Log - Related Links

Times and Time Zones

All times are in EDT time to prevent confusion due to time zone crossing. See the FLG3579 flight status page for this flight to view local times or setup timezone preferences in your user account.

Time Position Orientation Groundspeed Altitude Reporting Facility
EDT Latitude Longitude Course Direction KTS MPH feet Rate Location/Type
Thu 07:59:46 PM 38.3167 -85.7833 357° North 260 299 5,000  Level Louisville TRACON
Thu 08:00:58 PM 38.3939 -85.8250 337° Northwest 267 307 8,200 2,418 Climbing Indianapolis Center
Thu 08:02:00 PM 38.4664 -85.8606 339° North 276 318 10,400 1,694 Climbing Indianapolis Center
Thu 08:03:02 PM 38.5475 -85.8531 North 316 364 11,700 1,210 Climbing Indianapolis Center
Thu 08:04:00 PM 38.3892 -85.9833 North  Level FlightAware Approximate
Thu 08:04:04 PM 38.6247 -85.7775 37° Northeast 346 398 12,900  Level Indianapolis Center
Thu 08:05:00 PM 38.4891 -85.9859 357° North  Level FlightAware Approximate
Thu 08:05:05 PM 38.7119 -85.6928 37° Northeast 364 419 14,200  Level Indianapolis Center
Thu 08:06:07 PM 38.7947 -85.6131 37° Northeast 372 428 15,500 1,210 Climbing Indianapolis Center
Thu 08:07:09 PM 38.8781 -85.5319 37° Northeast 378 435 16,700 1,065 Climbing Indianapolis Center
Thu 08:08:11 PM 38.9664 -85.4603 32° Northeast 381 438 17,700 976 Climbing Indianapolis Center
Thu 08:09:12 PM 39.0633 -85.4047 24° Northeast 382 440 18,700 927 Climbing Indianapolis Center
Thu 08:10:14 PM 39.1603 -85.3503 24° Northeast 384 442 19,600 919 Climbing Indianapolis Center
Thu 08:11:16 PM 39.2778 -85.2819 24° Northeast 387 445 20,600 732 Climbing Indianapolis Center
Thu 08:12:17 PM 39.3775 -85.2244 24° Northeast 395 455 21,100 488 Climbing Indianapolis Center
Thu 08:13:19 PM 39.4811 -85.1647 24° Northeast 406 467 21,600 484 Climbing Indianapolis Center
Thu 08:14:21 PM 39.5842 -85.1036 25° Northeast 409 471 22,100 488 Climbing Indianapolis Center
Thu 08:15:22 PM 39.6894 -85.0428 24° Northeast 413 475 22,600 488 Climbing Indianapolis Center
Thu 08:16:24 PM 39.7947 -84.9803 25° Northeast 418 481 23,100 532 Climbing Indianapolis Center
Thu 08:17:26 PM 39.9208 -84.9072 24° Northeast 416 479 23,700 488 Climbing Indianapolis Center
Thu 08:18:27 PM 40.0206 -84.8486 24° Northeast 416 479 24,100 439 Climbing Indianapolis Center
Thu 08:19:29 PM 40.1272 -84.7853 24° Northeast 416 479 24,600 387 Climbing Indianapolis Center
Thu 08:20:31 PM 40.2386 -84.7481 14° North 405 466 24,900 146 Climbing Indianapolis Center
Thu 08:21:32 PM 40.3539 -84.7236 North 413 475 24,900 -98 Level Indianapolis Center
Thu 08:22:34 PM 40.4917 -84.6950 North 421 484 24,700 -387 Descending Indianapolis Center
Thu 08:23:36 PM 40.6111 -84.6692 North 428 493 24,100 -726 Descending Indianapolis Center
Thu 08:24:38 PM 40.7292 -84.6442 North 425 489 23,200 -537 Descending Indianapolis Center
Thu 08:25:39 PM 40.8483 -84.6189 North 428 493 23,000 -98 Descending Indianapolis Center
Thu 08:26:41 PM 40.9631 -84.5939 North 416 479 23,000 -439 Level Indianapolis Center
Thu 08:27:42 PM 41.0786 -84.5692 North 416 479 22,100 -927 Descending Indianapolis Center
Thu 08:28:44 PM 41.1917 -84.5422 10° North 411 473 21,100 -1,065 Descending Indianapolis Center
Thu 08:29:46 PM 41.2894 -84.4639 31° Northeast 407 468 19,900 -1,694 Descending Indianapolis Center
Thu 08:30:48 PM 41.3931 -84.3828 30° Northeast 404 465 17,600 -2,195 Descending Indianapolis Center
Thu 08:31:49 PM 41.4864 -84.3083 31° Northeast 390 449 15,400 -2,091 Descending Indianapolis Center
Thu 08:33:00 PM 41.5869 -84.2314 30° Northeast 375 432 13,000 -1,774 Descending Cleveland Center
Thu 08:33:44 PM 41.6639 -84.1717 30° Northeast 372 428 12,000 -500 Descending Cleveland Center
Thu 08:35:00 PM 41.7581 -84.0936 32° Northeast 363 418 12,000  Level Cleveland Center
Thu 08:35:52 PM 41.8244 -84.0358 33° Northeast 282 325 12,000  Level Cleveland Center

Login

Don't have an account? Register now (free) for customized features, flight alerts, and more!